sensor_id;sensor_type;location;lat;lon;timestamp;P1;durP1;ratioP1;P2;durP2;ratioP2
35290;SDS011;21411;50.024;19.220;2023-02-28T00:00:36;19.40;;;13.80;;
35290;SDS011;21411;50.024;19.220;2023-02-28T00:03:17;22.30;;;14.80;;
35290;SDS011;21411;50.024;19.220;2023-02-28T00:05:44;20.80;;;13.40;;
35290;SDS011;21411;50.024;19.220;2023-02-28T00:08:10;22.90;;;14.50;;
35290;SDS011;21411;50.024;19.220;2023-02-28T00:10:37;22.50;;;14.70;;
35290;SDS011;21411;50.024;19.220;2023-02-28T00:13:05;23.80;;;15.40;;
35290;SDS011;21411;50.024;19.220;2023-02-28T00:15:32;24.50;;;14.30;;
35290;SDS011;21411;50.024;19.220;2023-02-28T00:18:00;19.70;;;13.10;;
35290;SDS011;21411;50.024;19.220;2023-02-28T00:20:32;20.20;;;12.30;;
35290;SDS011;21411;50.024;19.220;2023-02-28T00:22:58;19.70;;;11.80;;
35290;SDS011;21411;50.024;19.220;2023-02-28T00:25:25;19.50;;;12.30;;
35290;SDS011;21411;50.024;19.220;2023-02-28T00:27:52;17.90;;;11.80;;
35290;SDS011;21411;50.024;19.220;2023-02-28T00:30:20;21.00;;;12.80;;
35290;SDS011;21411;50.024;19.220;2023-02-28T00:32:48;18.30;;;11.30;;
35290;SDS011;21411;50.024;19.220;2023-02-28T00:35:15;18.60;;;11.60;;
35290;SDS011;21411;50.024;19.220;2023-02-28T00:37:42;18.70;;;12.50;;
35290;SDS011;21411;50.024;19.220;2023-02-28T00:40:09;18.30;;;12.60;;
35290;SDS011;21411;50.024;19.220;2023-02-28T00:42:37;18.90;;;12.10;;
35290;SDS011;21411;50.024;19.220;2023-02-28T00:45:04;16.60;;;12.80;;
35290;SDS011;21411;50.024;19.220;2023-02-28T00:47:31;19.60;;;13.30;;
35290;SDS011;21411;50.024;19.220;2023-02-28T00:49:58;19.00;;;12.90;;
35290;SDS011;21411;50.024;19.220;2023-02-28T00:52:25;17.50;;;12.30;;
35290;SDS011;21411;50.024;19.220;2023-02-28T00:54:52;17.00;;;12.10;;
35290;SDS011;21411;50.024;19.220;2023-02-28T00:57:19;20.00;;;12.60;;
35290;SDS011;21411;50.024;19.220;2023-02-28T00:59:45;18.20;;;12.90;;
35290;SDS011;21411;50.024;19.220;2023-02-28T01:02:12;20.40;;;13.90;;
35290;SDS011;21411;50.024;19.220;2023-02-28T01:04:39;19.70;;;13.80;;
35290;SDS011;21411;50.024;19.220;2023-02-28T01:07:05;23.20;;;14.30;;
35290;SDS011;21411;50.024;19.220;2023-02-28T01:09:32;21.80;;;14.50;;
35290;SDS011;21411;50.024;19.220;2023-02-28T01:11:59;21.60;;;15.40;;
35290;SDS011;21411;50.024;19.220;2023-02-28T01:14:25;22.40;;;14.00;;
35290;SDS011;21411;50.024;19.220;2023-02-28T01:16:52;22.20;;;14.50;;
35290;SDS011;21411;50.024;19.220;2023-02-28T01:19:19;16.60;;;11.40;;
35290;SDS011;21411;50.024;19.220;2023-02-28T01:21:45;17.00;;;11.40;;
35290;SDS011;21411;50.024;19.220;2023-02-28T01:24:12;17.90;;;10.40;;
35290;SDS011;21411;50.024;19.220;2023-02-28T01:26:38;17.90;;;11.30;;
35290;SDS011;21411;50.024;19.220;2023-02-28T01:29:05;17.00;;;11.20;;
35290;SDS011;21411;50.024;19.220;2023-02-28T01:31:32;16.30;;;11.00;;
35290;SDS011;21411;50.024;19.220;2023-02-28T01:33:58;19.60;;;11.40;;
35290;SDS011;21411;50.024;19.220;2023-02-28T01:36:25;21.40;;;12.50;;
35290;SDS011;21411;50.024;19.220;2023-02-28T01:38:52;18.20;;;12.40;;
35290;SDS011;21411;50.024;19.220;2023-02-28T01:41:21;19.30;;;11.90;;
35290;SDS011;21411;50.024;19.220;2023-02-28T01:46:15;14.80;;;10.90;;
35290;SDS011;21411;50.024;19.220;2023-02-28T01:48:44;15.90;;;11.50;;
35290;SDS011;21411;50.024;19.220;2023-02-28T01:51:18;18.70;;;10.00;;
35290;SDS011;21411;50.024;19.220;2023-02-28T01:53:50;16.00;;;9.80;;
35290;SDS011;21411;50.024;19.220;2023-02-28T01:56:23;15.20;;;10.70;;
35290;SDS011;21411;50.024;19.220;2023-02-28T01:58:54;17.80;;;10.90;;
35290;SDS011;21411;50.024;19.220;2023-02-28T02:01:22;19.00;;;11.70;;
35290;SDS011;21411;50.024;19.220;2023-02-28T02:06:24;15.60;;;11.00;;
35290;SDS011;21411;50.024;19.220;2023-02-28T02:08:54;17.20;;;10.50;;
35290;SDS011;21411;50.024;19.220;2023-02-28T02:11:22;19.00;;;11.60;;
35290;SDS011;21411;50.024;19.220;2023-02-28T02:28:41;16.80;;;11.30;;
35290;SDS011;21411;50.024;19.220;2023-02-28T02:34:10;19.00;;;11.80;;
35290;SDS011;21411;50.024;19.220;2023-02-28T02:39:58;17.70;;;11.70;;
35290;SDS011;21411;50.024;19.220;2023-02-28T02:45:14;21.80;;;12.30;;
35290;SDS011;21411;50.024;19.220;2023-02-28T02:47:50;17.50;;;12.30;;
35290;SDS011;21411;50.024;19.220;2023-02-28T02:50:25;18.00;;;11.30;;
35290;SDS011;21411;50.024;19.220;2023-02-28T02:52:56;18.70;;;12.60;;
35290;SDS011;21411;50.024;19.220;2023-02-28T02:55:26;18.80;;;11.90;;
35290;SDS011;21411;50.024;19.220;2023-02-28T02:57:56;18.90;;;12.40;;
35290;SDS011;21411;50.024;19.220;2023-02-28T03:03:22;17.20;;;11.20;;
35290;SDS011;21411;50.024;19.220;2023-02-28T03:05:58;16.10;;;11.10;;
35290;SDS011;21411;50.024;19.220;2023-02-28T03:08:28;20.10;;;12.10;;
35290;SDS011;21411;50.024;19.220;2023-02-28T03:11:03;17.60;;;11.80;;
35290;SDS011;21411;50.024;19.220;2023-02-28T03:21:41;19.10;;;11.50;;
35290;SDS011;21411;50.024;19.220;2023-02-28T03:27:11;21.40;;;12.90;;
35290;SDS011;21411;50.024;19.220;2023-02-28T03:29:50;21.10;;;11.70;;
35290;SDS011;21411;50.024;19.220;2023-02-28T03:32:29;18.60;;;11.60;;
35290;SDS011;21411;50.024;19.220;2023-02-28T03:35:06;18.10;;;12.80;;
35290;SDS011;21411;50.024;19.220;2023-02-28T03:37:41;19.90;;;13.60;;
35290;SDS011;21411;50.024;19.220;2023-02-28T03:40:16;22.90;;;15.10;;
35290;SDS011;21411;50.024;19.220;2023-02-28T03:42:47;20.10;;;14.40;;
35290;SDS011;21411;50.024;19.220;2023-02-28T03:45:18;18.80;;;14.70;;
35290;SDS011;21411;50.024;19.220;2023-02-28T03:47:51;25.40;;;15.80;;
35290;SDS011;21411;50.024;19.220;2023-02-28T03:50:27;22.30;;;16.80;;
35290;SDS011;21411;50.024;19.220;2023-02-28T03:53:21;23.70;;;16.30;;
35290;SDS011;21411;50.024;19.220;2023-02-28T03:58:40;25.00;;;17.40;;
35290;SDS011;21411;50.024;19.220;2023-02-28T04:01:19;27.80;;;19.40;;
35290;SDS011;21411;50.024;19.220;2023-02-28T04:03:50;27.80;;;18.70;;
35290;SDS011;21411;50.024;19.220;2023-02-28T04:06:20;26.10;;;18.50;;
35290;SDS011;21411;50.024;19.220;2023-02-28T04:08:48;24.40;;;17.90;;
35290;SDS011;21411;50.024;19.220;2023-02-28T04:11:31;25.90;;;17.40;;
35290;SDS011;21411;50.024;19.220;2023-02-28T04:14:06;26.00;;;17.10;;
35290;SDS011;21411;50.024;19.220;2023-02-28T04:16:35;25.70;;;17.60;;
35290;SDS011;21411;50.024;19.220;2023-02-28T04:19:04;22.70;;;17.60;;
35290;SDS011;21411;50.024;19.220;2023-02-28T04:21:36;26.90;;;19.00;;
35290;SDS011;21411;50.024;19.220;2023-02-28T04:24:10;27.60;;;17.40;;
35290;SDS011;21411;50.024;19.220;2023-02-28T04:26:43;27.40;;;18.90;;
35290;SDS011;21411;50.024;19.220;2023-02-28T04:29:12;27.70;;;18.50;;
35290;SDS011;21411;50.024;19.220;2023-02-28T04:31:43;24.30;;;18.50;;
35290;SDS011;21411;50.024;19.220;2023-02-28T04:34:10;30.00;;;18.80;;
35290;SDS011;21411;50.024;19.220;2023-02-28T04:36:36;26.90;;;18.90;;
35290;SDS011;21411;50.024;19.220;2023-02-28T04:39:03;27.10;;;17.30;;
35290;SDS011;21411;50.024;19.220;2023-02-28T04:41:30;24.60;;;18.10;;
35290;SDS011;21411;50.024;19.220;2023-02-28T04:43:57;24.80;;;18.80;;
35290;SDS011;21411;50.024;19.220;2023-02-28T04:46:23;25.60;;;17.40;;
35290;SDS011;21411;50.024;19.220;2023-02-28T04:48:50;21.70;;;16.30;;
35290;SDS011;21411;50.024;19.220;2023-02-28T04:51:17;23.20;;;16.60;;
35290;SDS011;21411;50.024;19.220;2023-02-28T04:53:45;20.10;;;16.40;;
35290;SDS011;21411;50.024;19.220;2023-02-28T04:56:13;26.10;;;17.70;;
35290;SDS011;21411;50.024;19.220;2023-02-28T04:58:41;26.60;;;18.90;;
35290;SDS011;21411;50.024;19.220;2023-02-28T05:01:18;26.90;;;17.80;;
35290;SDS011;21411;50.024;19.220;2023-02-28T05:03:45;26.20;;;17.70;;
35290;SDS011;21411;50.024;19.220;2023-02-28T05:06:12;27.60;;;18.20;;
35290;SDS011;21411;50.024;19.220;2023-02-28T05:08:40;30.30;;;18.60;;
35290;SDS011;21411;50.024;19.220;2023-02-28T05:11:16;27.30;;;18.90;;
35290;SDS011;21411;50.024;19.220;2023-02-28T05:13:44;23.70;;;19.20;;
35290;SDS011;21411;50.024;19.220;2023-02-28T05:16:11;28.80;;;18.90;;
35290;SDS011;21411;50.024;19.220;2023-02-28T05:18:38;28.70;;;20.70;;
35290;SDS011;21411;50.024;19.220;2023-02-28T05:21:05;32.10;;;21.60;;
35290;SDS011;21411;50.024;19.220;2023-02-28T05:23:32;33.60;;;21.20;;
35290;SDS011;21411;50.024;19.220;2023-02-28T05:25:59;25.70;;;20.90;;
35290;SDS011;21411;50.024;19.220;2023-02-28T05:28:25;27.00;;;20.90;;
35290;SDS011;21411;50.024;19.220;2023-02-28T05:30:52;28.10;;;19.80;;
35290;SDS011;21411;50.024;19.220;2023-02-28T05:33:18;30.90;;;20.40;;
35290;SDS011;21411;50.024;19.220;2023-02-28T05:35:45;31.60;;;22.60;;
35290;SDS011;21411;50.024;19.220;2023-02-28T05:38:12;30.30;;;21.80;;
35290;SDS011;21411;50.024;19.220;2023-02-28T05:40:39;33.60;;;21.10;;
35290;SDS011;21411;50.024;19.220;2023-02-28T05:43:07;29.50;;;21.20;;
35290;SDS011;21411;50.024;19.220;2023-02-28T05:45:36;31.00;;;21.80;;
35290;SDS011;21411;50.024;19.220;2023-02-28T05:48:03;29.60;;;20.70;;
35290;SDS011;21411;50.024;19.220;2023-02-28T05:50:30;32.00;;;21.00;;
35290;SDS011;21411;50.024;19.220;2023-02-28T05:52:56;30.70;;;21.60;;
35290;SDS011;21411;50.024;19.220;2023-02-28T05:55:23;30.40;;;20.90;;
35290;SDS011;21411;50.024;19.220;2023-02-28T05:57:50;30.10;;;21.40;;
35290;SDS011;21411;50.024;19.220;2023-02-28T06:00:16;29.00;;;21.20;;
35290;SDS011;21411;50.024;19.220;2023-02-28T06:02:44;31.40;;;20.10;;
35290;SDS011;21411;50.024;19.220;2023-02-28T06:05:13;31.10;;;20.30;;
35290;SDS011;21411;50.024;19.220;2023-02-28T06:07:42;29.20;;;19.30;;
35290;SDS011;21411;50.024;19.220;2023-02-28T06:10:12;27.30;;;19.30;;
35290;SDS011;21411;50.024;19.220;2023-02-28T06:12:39;27.70;;;19.70;;
35290;SDS011;21411;50.024;19.220;2023-02-28T06:15:16;27.60;;;19.20;;
35290;SDS011;21411;50.024;19.220;2023-02-28T06:17:43;26.90;;;19.30;;
35290;SDS011;21411;50.024;19.220;2023-02-28T06:20:11;24.80;;;18.30;;
35290;SDS011;21411;50.024;19.220;2023-02-28T06:22:40;31.20;;;20.10;;
35290;SDS011;21411;50.024;19.220;2023-02-28T06:25:07;31.00;;;20.20;;
35290;SDS011;21411;50.024;19.220;2023-02-28T06:27:36;30.20;;;19.90;;
35290;SDS011;21411;50.024;19.220;2023-02-28T06:30:02;36.90;;;21.20;;
35290;SDS011;21411;50.024;19.220;2023-02-28T06:32:29;29.10;;;18.80;;
35290;SDS011;21411;50.024;19.220;2023-02-28T06:34:56;24.70;;;18.70;;
35290;SDS011;21411;50.024;19.220;2023-02-28T06:37:24;27.60;;;18.00;;
35290;SDS011;21411;50.024;19.220;2023-02-28T06:39:54;25.20;;;17.60;;
35290;SDS011;21411;50.024;19.220;2023-02-28T06:42:22;25.70;;;15.90;;
35290;SDS011;21411;50.024;19.220;2023-02-28T06:44:55;28.40;;;17.30;;
35290;SDS011;21411;50.024;19.220;2023-02-28T06:47:22;27.50;;;16.80;;
35290;SDS011;21411;50.024;19.220;2023-02-28T06:49:48;24.90;;;16.00;;
35290;SDS011;21411;50.024;19.220;2023-02-28T06:52:15;22.00;;;15.20;;
35290;SDS011;21411;50.024;19.220;2023-02-28T06:54:42;27.40;;;17.20;;
35290;SDS011;21411;50.024;19.220;2023-02-28T06:57:09;26.10;;;18.80;;
35290;SDS011;21411;50.024;19.220;2023-02-28T06:59:35;33.50;;;20.40;;
35290;SDS011;21411;50.024;19.220;2023-02-28T07:02:02;27.90;;;18.60;;
35290;SDS011;21411;50.024;19.220;2023-02-28T07:04:31;29.00;;;19.00;;
35290;SDS011;21411;50.024;19.220;2023-02-28T07:06:57;30.20;;;18.90;;
35290;SDS011;21411;50.024;19.220;2023-02-28T07:09:24;28.20;;;18.10;;
35290;SDS011;21411;50.024;19.220;2023-02-28T07:11:56;27.60;;;18.10;;
35290;SDS011;21411;50.024;19.220;2023-02-28T07:14:22;26.40;;;18.00;;
35290;SDS011;21411;50.024;19.220;2023-02-28T07:16:49;25.40;;;17.30;;
35290;SDS011;21411;50.024;19.220;2023-02-28T07:19:16;23.80;;;17.00;;
35290;SDS011;21411;50.024;19.220;2023-02-28T07:21:43;22.20;;;17.40;;
35290;SDS011;21411;50.024;19.220;2023-02-28T07:24:09;22.80;;;16.60;;
35290;SDS011;21411;50.024;19.220;2023-02-28T07:26:36;32.60;;;18.80;;
35290;SDS011;21411;50.024;19.220;2023-02-28T07:29:03;28.90;;;18.50;;
35290;SDS011;21411;50.024;19.220;2023-02-28T07:31:30;26.40;;;18.70;;
35290;SDS011;21411;50.024;19.220;2023-02-28T07:33:57;27.00;;;18.60;;
35290;SDS011;21411;50.024;19.220;2023-02-28T07:36:24;30.30;;;18.90;;
35290;SDS011;21411;50.024;19.220;2023-02-28T07:38:50;30.80;;;19.80;;
35290;SDS011;21411;50.024;19.220;2023-02-28T07:41:18;31.40;;;18.80;;
35290;SDS011;21411;50.024;19.220;2023-02-28T07:43:46;27.90;;;18.70;;
35290;SDS011;21411;50.024;19.220;2023-02-28T07:46:14;31.40;;;19.10;;
35290;SDS011;21411;50.024;19.220;2023-02-28T07:48:42;31.30;;;19.30;;
35290;SDS011;21411;50.024;19.220;2023-02-28T07:51:10;28.00;;;20.10;;
35290;SDS011;21411;50.024;19.220;2023-02-28T07:53:36;27.00;;;18.40;;
35290;SDS011;21411;50.024;19.220;2023-02-28T07:56:03;26.90;;;18.60;;
35290;SDS011;21411;50.024;19.220;2023-02-28T07:58:30;25.90;;;18.60;;
35290;SDS011;21411;50.024;19.220;2023-02-28T08:01:04;29.30;;;19.80;;
35290;SDS011;21411;50.024;19.220;2023-02-28T08:03:34;28.90;;;19.90;;
35290;SDS011;21411;50.024;19.220;2023-02-28T08:06:03;25.80;;;18.40;;
35290;SDS011;21411;50.024;19.220;2023-02-28T08:08:30;26.50;;;18.80;;
35290;SDS011;21411;50.024;19.220;2023-02-28T08:10:58;25.70;;;17.50;;
35290;SDS011;21411;50.024;19.220;2023-02-28T08:13:27;24.00;;;17.70;;
35290;SDS011;21411;50.024;19.220;2023-02-28T08:15:55;28.20;;;17.80;;
35290;SDS011;21411;50.024;19.220;2023-02-28T08:18:22;23.50;;;16.80;;
35290;SDS011;21411;50.024;19.220;2023-02-28T08:20:49;21.80;;;16.30;;
35290;SDS011;21411;50.024;19.220;2023-02-28T08:23:16;18.50;;;15.20;;
35290;SDS011;21411;50.024;19.220;2023-02-28T08:25:43;24.10;;;16.20;;
35290;SDS011;21411;50.024;19.220;2023-02-28T08:28:10;19.90;;;14.10;;
35290;SDS011;21411;50.024;19.220;2023-02-28T08:30:36;22.30;;;15.30;;
35290;SDS011;21411;50.024;19.220;2023-02-28T08:33:03;23.30;;;14.90;;
35290;SDS011;21411;50.024;19.220;2023-02-28T08:35:30;19.90;;;14.40;;
35290;SDS011;21411;50.024;19.220;2023-02-28T08:37:56;19.40;;;14.00;;
35290;SDS011;21411;50.024;19.220;2023-02-28T08:40:24;21.60;;;15.30;;
35290;SDS011;21411;50.024;19.220;2023-02-28T08:42:50;21.40;;;15.00;;
35290;SDS011;21411;50.024;19.220;2023-02-28T08:45:17;19.80;;;14.30;;
35290;SDS011;21411;50.024;19.220;2023-02-28T08:47:43;21.10;;;14.10;;
35290;SDS011;21411;50.024;19.220;2023-02-28T08:50:10;20.20;;;14.00;;
35290;SDS011;21411;50.024;19.220;2023-02-28T08:52:37;19.50;;;14.80;;
35290;SDS011;21411;50.024;19.220;2023-02-28T08:55:04;19.60;;;14.70;;
35290;SDS011;21411;50.024;19.220;2023-02-28T08:57:31;21.50;;;17.50;;
35290;SDS011;21411;50.024;19.220;2023-02-28T08:59:59;19.80;;;14.50;;
35290;SDS011;21411;50.024;19.220;2023-02-28T09:02:25;20.20;;;14.30;;
35290;SDS011;21411;50.024;19.220;2023-02-28T09:04:52;16.50;;;13.50;;
35290;SDS011;21411;50.024;19.220;2023-02-28T09:07:19;22.80;;;16.60;;
35290;SDS011;21411;50.024;19.220;2023-02-28T09:09:45;15.10;;;12.40;;
35290;SDS011;21411;50.024;19.220;2023-02-28T09:12:21;15.70;;;13.00;;
35290;SDS011;21411;50.024;19.220;2023-02-28T09:14:50;15.20;;;11.30;;
35290;SDS011;21411;50.024;19.220;2023-02-28T09:17:17;14.00;;;11.80;;
35290;SDS011;21411;50.024;19.220;2023-02-28T09:19:44;16.20;;;12.30;;
35290;SDS011;21411;50.024;19.220;2023-02-28T09:22:11;16.00;;;10.80;;
35290;SDS011;21411;50.024;19.220;2023-02-28T09:24:38;15.50;;;10.40;;
35290;SDS011;21411;50.024;19.220;2023-02-28T09:27:05;14.80;;;11.10;;
35290;SDS011;21411;50.024;19.220;2023-02-28T09:29:32;18.20;;;12.00;;
35290;SDS011;21411;50.024;19.220;2023-02-28T09:32:00;13.60;;;9.90;;
35290;SDS011;21411;50.024;19.220;2023-02-28T09:34:28;12.10;;;9.60;;
35290;SDS011;21411;50.024;19.220;2023-02-28T09:36:58;12.00;;;9.80;;
35290;SDS011;21411;50.024;19.220;2023-02-28T09:39:25;14.10;;;11.50;;
35290;SDS011;21411;50.024;19.220;2023-02-28T09:41:53;13.50;;;10.40;;
35290;SDS011;21411;50.024;19.220;2023-02-28T09:44:31;13.80;;;10.30;;
35290;SDS011;21411;50.024;19.220;2023-02-28T09:49:51;19.30;;;13.10;;
35290;SDS011;21411;50.024;19.220;2023-02-28T09:52:19;18.20;;;11.90;;
35290;SDS011;21411;50.024;19.220;2023-02-28T09:54:50;13.60;;;10.10;;
35290;SDS011;21411;50.024;19.220;2023-02-28T10:00:03;13.40;;;11.40;;
35290;SDS011;21411;50.024;19.220;2023-02-28T10:05:12;17.50;;;12.40;;
35290;SDS011;21411;50.024;19.220;2023-02-28T10:10:23;27.60;;;19.40;;
35290;SDS011;21411;50.024;19.220;2023-02-28T10:12:54;78.20;;;41.40;;
35290;SDS011;21411;50.024;19.220;2023-02-28T10:15:25;45.10;;;28.30;;
35290;SDS011;21411;50.024;19.220;2023-02-28T10:17:57;30.70;;;21.90;;
35290;SDS011;21411;50.024;19.220;2023-02-28T10:20:28;20.60;;;17.40;;
35290;SDS011;21411;50.024;19.220;2023-02-28T10:25:34;18.20;;;13.00;;
35290;SDS011;21411;50.024;19.220;2023-02-28T10:30:40;16.80;;;13.50;;
35290;SDS011;21411;50.024;19.220;2023-02-28T10:33:15;19.30;;;14.90;;
35290;SDS011;21411;50.024;19.220;2023-02-28T10:35:46;16.90;;;13.40;;
35290;SDS011;21411;50.024;19.220;2023-02-28T10:38:18;18.20;;;14.90;;
35290;SDS011;21411;50.024;19.220;2023-02-28T10:40:47;15.30;;;13.60;;
35290;SDS011;21411;50.024;19.220;2023-02-28T10:45:55;16.10;;;12.10;;
35290;SDS011;21411;50.024;19.220;2023-02-28T10:48:27;15.90;;;12.60;;
35290;SDS011;21411;50.024;19.220;2023-02-28T10:50:57;14.00;;;12.30;;
35290;SDS011;21411;50.024;19.220;2023-02-28T10:53:34;17.20;;;13.10;;
35290;SDS011;21411;50.024;19.220;2023-02-28T10:58:44;15.30;;;11.90;;
35290;SDS011;21411;50.024;19.220;2023-02-28T11:01:41;16.10;;;12.30;;
35290;SDS011;21411;50.024;19.220;2023-02-28T11:04:18;16.20;;;11.00;;
35290;SDS011;21411;50.024;19.220;2023-02-28T11:06:45;15.50;;;10.70;;
35290;SDS011;21411;50.024;19.220;2023-02-28T11:11:56;18.30;;;11.10;;
35290;SDS011;21411;50.024;19.220;2023-02-28T11:14:24;15.70;;;11.00;;
35290;SDS011;21411;50.024;19.220;2023-02-28T11:16:53;14.60;;;10.30;;
35290;SDS011;21411;50.024;19.220;2023-02-28T11:19:24;14.10;;;9.50;;
35290;SDS011;21411;50.024;19.220;2023-02-28T11:21:58;12.30;;;9.80;;
35290;SDS011;21411;50.024;19.220;2023-02-28T11:24:28;12.90;;;9.20;;
35290;SDS011;21411;50.024;19.220;2023-02-28T11:26:59;14.50;;;9.30;;
35290;SDS011;21411;50.024;19.220;2023-02-28T11:34:36;12.10;;;9.80;;
35290;SDS011;21411;50.024;19.220;2023-02-28T11:37:08;13.60;;;7.70;;
35290;SDS011;21411;50.024;19.220;2023-02-28T11:39:38;10.90;;;9.10;;
35290;SDS011;21411;50.024;19.220;2023-02-28T11:53:00;13.20;;;10.20;;
35290;SDS011;21411;50.024;19.220;2023-02-28T11:55:39;17.30;;;12.60;;
35290;SDS011;21411;50.024;19.220;2023-02-28T11:58:23;19.90;;;15.30;;
35290;SDS011;21411;50.024;19.220;2023-02-28T12:01:20;13.30;;;11.90;;
35290;SDS011;21411;50.024;19.220;2023-02-28T12:28:55;11.20;;;8.40;;
35290;SDS011;21411;50.024;19.220;2023-02-28T12:31:29;15.60;;;9.40;;
35290;SDS011;21411;50.024;19.220;2023-02-28T12:34:03;11.80;;;8.30;;
35290;SDS011;21411;50.024;19.220;2023-02-28T12:36:36;9.90;;;8.00;;
35290;SDS011;21411;50.024;19.220;2023-02-28T12:39:12;10.50;;;8.80;;
35290;SDS011;21411;50.024;19.220;2023-02-28T12:41:49;11.80;;;8.30;;
35290;SDS011;21411;50.024;19.220;2023-02-28T12:44:21;11.70;;;8.50;;
35290;SDS011;21411;50.024;19.220;2023-02-28T12:46:57;11.30;;;8.20;;
35290;SDS011;21411;50.024;19.220;2023-02-28T12:49:34;12.30;;;8.50;;
35290;SDS011;21411;50.024;19.220;2023-02-28T12:52:08;12.10;;;8.80;;
35290;SDS011;21411;50.024;19.220;2023-02-28T12:54:42;12.80;;;9.50;;
35290;SDS011;21411;50.024;19.220;2023-02-28T12:57:17;24.00;;;15.90;;
35290;SDS011;21411;50.024;19.220;2023-02-28T12:59:54;12.60;;;10.50;;
35290;SDS011;21411;50.024;19.220;2023-02-28T13:10:45;10.90;;;8.80;;
35290;SDS011;21411;50.024;19.220;2023-02-28T13:13:18;12.00;;;9.10;;
35290;SDS011;21411;50.024;19.220;2023-02-28T13:16:03;12.10;;;9.70;;
35290;SDS011;21411;50.024;19.220;2023-02-28T13:21:04;11.50;;;9.40;;
35290;SDS011;21411;50.024;19.220;2023-02-28T13:26:04;10.10;;;9.00;;
35290;SDS011;21411;50.024;19.220;2023-02-28T13:34:35;12.90;;;9.30;;
35290;SDS011;21411;50.024;19.220;2023-02-28T13:39:56;10.70;;;9.40;;
35290;SDS011;21411;50.024;19.220;2023-02-28T13:42:33;10.30;;;8.80;;
35290;SDS011;21411;50.024;19.220;2023-02-28T13:55:43;12.20;;;8.40;;
35290;SDS011;21411;50.024;19.220;2023-02-28T14:07:05;15.90;;;10.90;;
35290;SDS011;21411;50.024;19.220;2023-02-28T14:09:34;11.80;;;10.60;;
35290;SDS011;21411;50.024;19.220;2023-02-28T14:15:25;11.40;;;9.80;;
35290;SDS011;21411;50.024;19.220;2023-02-28T14:17:57;13.30;;;10.50;;
35290;SDS011;21411;50.024;19.220;2023-02-28T14:20:26;14.50;;;10.60;;
35290;SDS011;21411;50.024;19.220;2023-02-28T14:25:45;11.60;;;9.90;;
35290;SDS011;21411;50.024;19.220;2023-02-28T14:31:37;15.60;;;9.70;;
35290;SDS011;21411;50.024;19.220;2023-02-28T14:34:21;13.00;;;10.10;;
35290;SDS011;21411;50.024;19.220;2023-02-28T14:36:58;13.00;;;10.30;;
35290;SDS011;21411;50.024;19.220;2023-02-28T14:39:26;11.10;;;10.00;;
35290;SDS011;21411;50.024;19.220;2023-02-28T14:41:57;14.00;;;10.80;;
35290;SDS011;21411;50.024;19.220;2023-02-28T14:44:31;15.10;;;11.40;;
35290;SDS011;21411;50.024;19.220;2023-02-28T14:47:01;13.30;;;10.70;;
35290;SDS011;21411;50.024;19.220;2023-02-28T14:49:37;14.40;;;10.80;;
35290;SDS011;21411;50.024;19.220;2023-02-28T14:52:17;17.00;;;12.00;;
35290;SDS011;21411;50.024;19.220;2023-02-28T14:54:54;16.00;;;10.60;;
35290;SDS011;21411;50.024;19.220;2023-02-28T14:57:28;29.90;;;17.40;;
35290;SDS011;21411;50.024;19.220;2023-02-28T15:02:24;23.70;;;14.40;;
35290;SDS011;21411;50.024;19.220;2023-02-28T15:05:22;41.30;;;23.20;;
35290;SDS011;21411;50.024;19.220;2023-02-28T15:07:39;75.80;;;34.50;;
35290;SDS011;21411;50.024;19.220;2023-02-28T15:10:07;62.60;;;29.20;;
35290;SDS011;21411;50.024;19.220;2023-02-28T15:12:35;42.70;;;25.30;;
35290;SDS011;21411;50.024;19.220;2023-02-28T15:15:03;20.20;;;15.30;;
35290;SDS011;21411;50.024;19.220;2023-02-28T15:17:31;16.80;;;12.40;;
35290;SDS011;21411;50.024;19.220;2023-02-28T15:19:57;19.30;;;13.50;;
35290;SDS011;21411;50.024;19.220;2023-02-28T15:22:27;18.30;;;13.10;;
35290;SDS011;21411;50.024;19.220;2023-02-28T15:24:59;16.50;;;13.50;;
35290;SDS011;21411;50.024;19.220;2023-02-28T15:27:31;14.00;;;11.10;;
35290;SDS011;21411;50.024;19.220;2023-02-28T15:30:00;15.10;;;12.90;;
35290;SDS011;21411;50.024;19.220;2023-02-28T15:32:36;12.90;;;11.30;;
35290;SDS011;21411;50.024;19.220;2023-02-28T15:35:26;13.90;;;11.70;;
35290;SDS011;21411;50.024;19.220;2023-02-28T15:40:46;15.00;;;11.00;;
35290;SDS011;21411;50.024;19.220;2023-02-28T15:43:24;15.30;;;11.10;;
35290;SDS011;21411;50.024;19.220;2023-02-28T15:45:52;15.10;;;11.30;;
35290;SDS011;21411;50.024;19.220;2023-02-28T15:48:25;12.10;;;9.90;;
35290;SDS011;21411;50.024;19.220;2023-02-28T15:51:33;52.80;;;30.20;;
35290;SDS011;21411;50.024;19.220;2023-02-28T15:54:07;80.50;;;45.70;;
35290;SDS011;21411;50.024;19.220;2023-02-28T15:56:39;28.30;;;19.70;;
35290;SDS011;21411;50.024;19.220;2023-02-28T15:59:15;19.30;;;15.60;;
35290;SDS011;21411;50.024;19.220;2023-02-28T16:01:46;23.10;;;17.50;;
35290;SDS011;21411;50.024;19.220;2023-02-28T16:04:17;18.80;;;15.50;;
35290;SDS011;21411;50.024;19.220;2023-02-28T16:09:15;26.90;;;18.30;;
35290;SDS011;21411;50.024;19.220;2023-02-28T16:11:46;20.90;;;14.00;;
35290;SDS011;21411;50.024;19.220;2023-02-28T16:14:18;15.70;;;11.70;;
35290;SDS011;21411;50.024;19.220;2023-02-28T16:16:50;15.40;;;11.80;;
35290;SDS011;21411;50.024;19.220;2023-02-28T16:19:21;18.60;;;12.80;;
35290;SDS011;21411;50.024;19.220;2023-02-28T16:21:49;19.20;;;12.60;;
35290;SDS011;21411;50.024;19.220;2023-02-28T16:24:15;15.50;;;11.50;;
35290;SDS011;21411;50.024;19.220;2023-02-28T16:26:44;14.20;;;11.90;;
35290;SDS011;21411;50.024;19.220;2023-02-28T16:29:24;15.30;;;11.30;;
35290;SDS011;21411;50.024;19.220;2023-02-28T16:31:57;19.50;;;11.80;;
35290;SDS011;21411;50.024;19.220;2023-02-28T16:34:25;22.60;;;13.50;;
35290;SDS011;21411;50.024;19.220;2023-02-28T16:36:52;16.40;;;12.50;;
35290;SDS011;21411;50.024;19.220;2023-02-28T16:39:19;15.10;;;11.90;;
35290;SDS011;21411;50.024;19.220;2023-02-28T16:41:47;14.00;;;11.80;;
35290;SDS011;21411;50.024;19.220;2023-02-28T16:44:26;15.10;;;12.30;;
35290;SDS011;21411;50.024;19.220;2023-02-28T16:46:56;16.10;;;11.50;;
35290;SDS011;21411;50.024;19.220;2023-02-28T16:49:22;17.10;;;13.00;;
35290;SDS011;21411;50.024;19.220;2023-02-28T16:51:49;16.70;;;12.20;;
35290;SDS011;21411;50.024;19.220;2023-02-28T16:54:16;20.30;;;14.30;;
35290;SDS011;21411;50.024;19.220;2023-02-28T16:56:44;20.90;;;13.00;;
35290;SDS011;21411;50.024;19.220;2023-02-28T16:59:13;16.80;;;13.60;;
35290;SDS011;21411;50.024;19.220;2023-02-28T17:01:44;19.80;;;13.70;;
35290;SDS011;21411;50.024;19.220;2023-02-28T17:04:11;18.40;;;13.00;;
35290;SDS011;21411;50.024;19.220;2023-02-28T17:06:38;18.90;;;12.90;;
35290;SDS011;21411;50.024;19.220;2023-02-28T17:09:08;23.70;;;15.00;;
35290;SDS011;21411;50.024;19.220;2023-02-28T17:11:41;24.90;;;15.00;;
35290;SDS011;21411;50.024;19.220;2023-02-28T17:14:08;27.10;;;17.20;;
35290;SDS011;21411;50.024;19.220;2023-02-28T17:16:35;25.50;;;18.30;;